Time;durP1;ratioP1;P1;durP2;ratioP2;P2;SDS_P1;SDS_P2;PMS_P1;PMS_P2;Temp;Humidity;BMP_temperature;BMP_pressure;BME280_temperature;BME280_humidity;BME280_pressure;Samples;Min_cycle;Max_cycle;Signal;HPM_P1;HPM_P2
2021/08/08 00:00:06;;;;;;;;;;;22.80;71.80;;;;;;5144797;28;19926;-50
2021/08/08 00:02:43;;;;;;;;;;;22.80;71.90;;;;;;5148877;28;19956;-52
2021/08/08 00:05:15;;;;;;;;;;;22.80;71.90;;;;;;5146594;28;19937;-52
2021/08/08 00:07:49;;;;;;;;;;;22.80;71.90;;;;;;5147207;28;19937;-49
2021/08/08 00:10:22;;;;;;;;;;;22.70;72.50;;;;;;5155671;28;20425;-54
2021/08/08 00:12:54;;;;;;;;;;;22.70;71.90;;;;;;5143405;28;19941;-49
2021/08/08 00:15:26;;;;;;;;;;;22.70;72.00;;;;;;5144025;28;19926;-53
2021/08/08 00:18:07;;;;;;;;;;;22.70;72.00;;;;;;5159462;28;20609;-54
2021/08/08 00:20:39;;;;;;;;;;;22.70;72.00;;;;;;5170912;28;19952;-53
2021/08/08 00:23:11;;;;;;;;;;;22.70;72.20;;;;;;5183626;28;19934;-51
2021/08/08 00:25:45;;;;;;;;;;;22.70;72.20;;;;;;5185137;28;20313;-49
2021/08/08 00:28:17;;;;;;;;;;;22.70;72.30;;;;;;5185209;28;19939;-53
2021/08/08 00:30:50;;;;;;;;;;;22.60;72.30;;;;;;5195676;28;19926;-52
2021/08/08 00:33:22;;;;;;;;;;;22.70;72.40;;;;;;5181771;28;19933;-48
2021/08/08 00:35:54;;;;;;;;;;;22.60;72.30;;;;;;5180914;28;20309;-51
2021/08/08 00:38:29;;;;;;;;;;;22.60;72.30;;;;;;5176185;28;19952;-52
2021/08/08 00:41:05;;;;;;;;;;;22.60;72.30;;;;;;5182801;28;19930;-51
2021/08/08 00:43:38;;;;;;;;;;;22.60;72.20;;;;;;5181303;28;20378;-50
2021/08/08 00:46:11;;;;;;;;;;;22.60;72.30;;;;;;5198701;28;19935;-52
2021/08/08 00:48:43;;;;;;;;;;;22.60;72.30;;;;;;5198615;28;19937;-54
2021/08/08 00:51:19;;;;;;;;;;;22.60;72.30;;;;;;5179703;28;19940;-53
2021/08/08 00:53:53;;;;;;;;;;;22.60;72.30;;;;;;5180966;28;19936;-51
2021/08/08 00:56:25;;;;;;;;;;;22.60;72.40;;;;;;5180078;28;19929;-52
2021/08/08 00:58:59;;;;;;;;;;;22.60;72.50;;;;;;5196030;28;19941;-52
2021/08/08 01:01:39;;;;;;;;;;;22.60;72.40;;;;;;5195873;28;19933;-52
2021/08/08 01:04:20;;;;;;;;;;;22.60;72.40;;;;;;5182534;28;20305;-52
2021/08/08 01:06:56;;;;;;;;;;;22.60;72.30;;;;;;5181074;28;19934;-51
2021/08/08 01:09:34;;;;;;;;;;;22.60;72.40;;;;;;5176821;28;20302;-55
2021/08/08 01:12:07;;;;;;;;;;;22.60;72.30;;;;;;5172915;28;19926;-52
2021/08/08 01:14:46;;;;;;;;;;;22.50;72.30;;;;;;5184493;28;19925;-54
2021/08/08 01:17:19;;;;;;;;;;;22.60;72.30;;;;;;5203238;28;19925;-53
2021/08/08 01:19:54;;;;;;;;;;;22.60;72.30;;;;;;5199895;28;19933;-51
2021/08/08 01:22:28;;;;;;;;;;;22.50;72.30;;;;;;5177196;28;19929;-51
2021/08/08 01:25:01;;;;;;;;;;;22.50;72.30;;;;;;5176510;28;19933;-52
2021/08/08 01:27:34;;;;;;;;;;;22.50;72.30;;;;;;5184024;28;19925;-50
2021/08/08 01:30:08;;;;;;;;;;;22.50;72.40;;;;;;5202268;28;20345;-49
2021/08/08 01:32:43;;;;;;;;;;;22.50;72.40;;;;;;5197305;28;19929;-53
2021/08/08 01:35:16;;;;;;;;;;;22.50;72.40;;;;;;5184843;28;19951;-52
2021/08/08 01:37:48;;;;;;;;;;;22.50;72.40;;;;;;5188136;28;19936;-52
2021/08/08 01:40:28;;;;;;;;;;;22.50;72.50;;;;;;5185918;28;19930;-54
2021/08/08 01:43:06;;;;;;;;;;;22.50;72.50;;;;;;5186171;28;19951;-54
2021/08/08 01:45:40;;;;;;;;;;;22.50;72.50;;;;;;5198847;28;19929;-54
2021/08/08 01:48:16;;;;;;;;;;;22.40;72.40;;;;;;5185017;28;19934;-52
2021/08/08 01:50:48;;;;;;;;;;;22.50;72.50;;;;;;5188530;28;19936;-49
2021/08/08 01:53:22;;;;;;;;;;;22.50;72.60;;;;;;5200036;28;19940;-53
2021/08/08 01:55:54;;;;;;;;;;;22.50;72.60;;;;;;5183412;28;19944;-55
2021/08/08 01:58:28;;;;;;;;;;;22.40;72.50;;;;;;5180286;28;21977;-55
2021/08/08 02:01:05;;;;;;;;;;;22.40;72.50;;;;;;5183756;28;19925;-52
2021/08/08 02:03:39;;;;;;;;;;;22.40;72.60;;;;;;5202068;28;19925;-52
2021/08/08 02:06:13;;;;;;;;;;;22.40;72.60;;;;;;5203031;28;19932;-52
2021/08/08 02:08:52;;;;;;;;;;;22.40;72.50;;;;;;5204285;28;19929;-52
2021/08/08 02:11:24;;;;;;;;;;;22.40;72.60;;;;;;5185743;28;19929;-51
2021/08/08 02:14:05;;;;;;;;;;;22.40;72.60;;;;;;5199858;28;19933;-49
2021/08/08 02:16:40;;;;;;;;;;;22.40;72.60;;;;;;5177262;28;19936;-51
2021/08/08 02:19:16;;;;;;;;;;;22.30;72.50;;;;;;5197279;28;19929;-49
2021/08/08 02:21:56;;;;;;;;;;;22.40;72.50;;;;;;5200198;28;20574;-53
2021/08/08 02:24:32;;;;;;;;;;;22.40;72.60;;;;;;5181175;28;19932;-50
2021/08/08 02:27:15;;;;;;;;;;;22.30;72.50;;;;;;5161962;28;19932;-54
2021/08/08 02:29:50;;;;;;;;;;;22.30;72.60;;;;;;5195440;28;19925;-52
2021/08/08 02:32:24;;;;;;;;;;;22.30;72.60;;;;;;5177775;28;19932;-50
2021/08/08 02:34:57;;;;;;;;;;;22.30;72.50;;;;;;5195680;28;19933;-52
2021/08/08 02:37:30;;;;;;;;;;;22.30;73.20;;;;;;5184028;28;20377;-50
2021/08/08 02:40:03;;;;;;;;;;;22.30;72.60;;;;;;5163208;28;19930;-53
2021/08/08 02:42:35;;;;;;;;;;;22.30;72.60;;;;;;5192778;28;20321;-53
2021/08/08 02:45:09;;;;;;;;;;;22.30;72.60;;;;;;5190711;28;20325;-55
2021/08/08 02:47:41;;;;;;;;;;;22.30;72.60;;;;;;5176340;28;19936;-53
2021/08/08 02:50:15;;;;;;;;;;;22.30;72.70;;;;;;5174630;28;19933;-52
2021/08/08 02:52:48;;;;;;;;;;;22.30;72.60;;;;;;5194484;28;19933;-51
2021/08/08 02:55:20;;;;;;;;;;;22.30;72.60;;;;;;5193078;28;19929;-52
2021/08/08 02:57:58;;;;;;;;;;;22.20;72.60;;;;;;5192031;28;19933;-55
2021/08/08 03:00:30;;;;;;;;;;;22.20;72.70;;;;;;5193310;28;20473;-53
2021/08/08 03:03:03;;;;;;;;;;;22.20;72.70;;;;;;5179041;28;19929;-55
2021/08/08 03:05:38;;;;;;;;;;;22.20;72.70;;;;;;5183040;28;20464;-53
2021/08/08 03:08:13;;;;;;;;;;;22.20;72.80;;;;;;5184630;28;19929;-51
2021/08/08 03:10:45;;;;;;;;;;;22.20;72.90;;;;;;5201345;28;19936;-50
2021/08/08 03:13:18;;;;;;;;;;;22.20;72.80;;;;;;5184695;28;19956;-52
2021/08/08 03:15:50;;;;;;;;;;;22.20;72.80;;;;;;5180354;28;19929;-50
2021/08/08 03:18:23;;;;;;;;;;;22.20;72.90;;;;;;5181745;28;19929;-54
2021/08/08 03:20:56;;;;;;;;;;;22.20;72.90;;;;;;5195851;28;19926;-55
2021/08/08 03:23:28;;;;;;;;;;;22.20;72.90;;;;;;5186230;28;20456;-51
2021/08/08 03:26:01;;;;;;;;;;;22.20;72.90;;;;;;5196483;28;19948;-53
2021/08/08 03:28:35;;;;;;;;;;;22.20;72.90;;;;;;5179671;28;19934;-54
2021/08/08 03:31:09;;;;;;;;;;;22.20;72.90;;;;;;5171761;28;20546;-52
2021/08/08 03:33:41;;;;;;;;;;;22.20;72.90;;;;;;5183820;28;19945;-52
2021/08/08 03:36:14;;;;;;;;;;;22.20;73.00;;;;;;5165034;28;19933;-54
2021/08/08 03:38:48;;;;;;;;;;;22.20;73.00;;;;;;5160277;28;19929;-50
2021/08/08 03:41:20;;;;;;;;;;;22.20;73.00;;;;;;5199687;28;20322;-53
2021/08/08 03:43:53;;;;;;;;;;;22.20;73.00;;;;;;5167187;28;19925;-56
2021/08/08 03:46:26;;;;;;;;;;;22.20;73.50;;;;;;5187244;28;20412;-51
2021/08/08 03:48:59;;;;;;;;;;;22.20;73.00;;;;;;5193942;28;19928;-50
2021/08/08 03:51:31;;;;;;;;;;;22.20;73.00;;;;;;5182424;28;19925;-52
2021/08/08 03:54:04;;;;;;;;;;;22.10;73.00;;;;;;5181717;28;19936;-55
2021/08/08 03:56:37;;;;;;;;;;;22.20;73.00;;;;;;5180541;28;19933;-53
2021/08/08 03:59:09;;;;;;;;;;;22.20;73.00;;;;;;5178888;28;19940;-53
2021/08/08 04:01:44;;;;;;;;;;;22.20;73.00;;;;;;5197175;28;19933;-52
2021/08/08 04:04:17;;;;;;;;;;;22.10;73.00;;;;;;5195232;28;19925;-55
2021/08/08 04:06:49;;;;;;;;;;;22.20;73.00;;;;;;5194048;28;19929;-52
2021/08/08 04:09:22;;;;;;;;;;;22.20;73.00;;;;;;5180471;28;19933;-51
2021/08/08 04:11:54;;;;;;;;;;;22.10;73.00;;;;;;5180028;28;19933;-51
2021/08/08 04:14:27;;;;;;;;;;;22.10;72.90;;;;;;5199389;28;20204;-52
2021/08/08 04:16:59;;;;;;;;;;;22.10;72.90;;;;;;5182974;28;19944;-54
2021/08/08 04:19:32;;;;;;;;;;;22.10;72.80;;;;;;5197917;28;19937;-54
2021/08/08 04:22:05;;;;;;;;;;;22.10;72.90;;;;;;5185738;28;19936;-50
2021/08/08 04:24:38;;;;;;;;;;;22.10;72.90;;;;;;5197007;28;19929;-54
2021/08/08 04:27:10;;;;;;;;;;;22.10;72.90;;;;;;5184886;28;19929;-55
2021/08/08 04:29:42;;;;;;;;;;;22.10;72.90;;;;;;5192326;28;19925;-55
2021/08/08 04:32:16;;;;;;;;;;;22.10;72.90;;;;;;5183545;28;19926;-54
2021/08/08 04:34:48;;;;;;;;;;;22.10;72.90;;;;;;5200516;28;20357;-51
2021/08/08 04:37:20;;;;;;;;;;;22.10;73.00;;;;;;5183871;28;20321;-55
2021/08/08 04:39:52;;;;;;;;;;;22.10;73.00;;;;;;5170783;28;21771;-52
2021/08/08 04:42:25;;;;;;;;;;;22.10;73.00;;;;;;5183109;28;19929;-54
2021/08/08 04:44:58;;;;;;;;;;;22.10;73.00;;;;;;5180426;28;19932;-53
2021/08/08 04:47:30;;;;;;;;;;;22.10;73.00;;;;;;5197597;28;19929;-56
2021/08/08 04:50:03;;;;;;;;;;;22.10;73.00;;;;;;5182577;28;19928;-53
2021/08/08 04:52:37;;;;;;;;;;;22.10;73.00;;;;;;5183896;28;19926;-54
2021/08/08 04:55:09;;;;;;;;;;;22.10;73.00;;;;;;5184353;28;20171;-54
2021/08/08 04:57:41;;;;;;;;;;;22.10;73.10;;;;;;5181772;28;19929;-55
2021/08/08 05:00:18;;;;;;;;;;;22.10;73.10;;;;;;5201305;28;19925;-52
2021/08/08 05:02:51;;;;;;;;;;;22.10;73.10;;;;;;5183866;28;19936;-53
2021/08/08 05:05:23;;;;;;;;;;;22.10;73.10;;;;;;5205324;28;20330;-51
2021/08/08 05:07:57;;;;;;;;;;;22.10;73.20;;;;;;5185973;28;20436;-55
2021/08/08 05:10:31;;;;;;;;;;;22.00;73.10;;;;;;5203091;28;19948;-52
2021/08/08 05:13:04;;;;;;;;;;;22.00;73.10;;;;;;5192788;28;19929;-52
2021/08/08 05:15:36;;;;;;;;;;;22.10;73.20;;;;;;5191303;28;19929;-53
2021/08/08 05:18:09;;;;;;;;;;;22.00;73.20;;;;;;5172277;28;19929;-51
2021/08/08 05:20:41;;;;;;;;;;;22.00;73.30;;;;;;5172679;28;19929;-53
2021/08/08 05:23:14;;;;;;;;;;;22.10;73.40;;;;;;5160352;28;20250;-52
2021/08/08 05:25:46;;;;;;;;;;;22.00;73.40;;;;;;5178152;28;19947;-50
2021/08/08 05:28:19;;;;;;;;;;;22.00;73.50;;;;;;5177789;28;19933;-53
2021/08/08 05:30:51;;;;;;;;;;;22.10;73.50;;;;;;5177265;28;19931;-51
2021/08/08 05:33:23;;;;;;;;;;;22.10;73.60;;;;;;5179349;28;19925;-53
2021/08/08 05:35:56;;;;;;;;;;;22.10;73.60;;;;;;5192743;28;19934;-55
2021/08/08 05:38:28;;;;;;;;;;;22.00;73.60;;;;;;5180991;28;20492;-53
2021/08/08 05:41:00;;;;;;;;;;;22.10;73.60;;;;;;5177675;28;20657;-52
2021/08/08 05:43:33;;;;;;;;;;;22.00;73.70;;;;;;5175209;28;20341;-50
2021/08/08 05:46:06;;;;;;;;;;;22.10;73.70;;;;;;5163348;28;19934;-51
2021/08/08 05:48:38;;;;;;;;;;;22.10;73.70;;;;;;5186523;28;19933;-55
2021/08/08 05:51:10;;;;;;;;;;;22.10;73.90;;;;;;5175051;28;19933;-50
2021/08/08 05:53:57;;;;;;;;;;;22.00;73.90;;;;;;5175528;28;20301;-54
2021/08/08 05:56:30;;;;;;;;;;;22.00;73.90;;;;;;5195184;28;20402;-54
2021/08/08 05:59:02;;;;;;;;;;;22.00;73.90;;;;;;5191988;28;19929;-52
2021/08/08 06:01:35;;;;;;;;;;;22.00;74.00;;;;;;5193804;28;19925;-52
2021/08/08 06:04:07;;;;;;;;;;;22.10;74.00;;;;;;5182676;28;19932;-53
2021/08/08 06:06:40;;;;;;;;;;;22.10;74.00;;;;;;5181861;28;19940;-50
2021/08/08 06:09:12;;;;;;;;;;;22.00;74.00;;;;;;5181037;28;19938;-52
2021/08/08 06:11:45;;;;;;;;;;;22.10;74.10;;;;;;5185597;28;19933;-51
2021/08/08 06:14:17;;;;;;;;;;;22.00;74.10;;;;;;5153044;28;19934;-54
2021/08/08 06:16:50;;;;;;;;;;;22.00;74.00;;;;;;5170991;28;19955;-49
2021/08/08 06:19:22;;;;;;;;;;;22.10;74.20;;;;;;5173595;28;19940;-51
2021/08/08 06:21:55;;;;;;;;;;;22.10;74.10;;;;;;5188022;28;19925;-51
2021/08/08 06:24:27;;;;;;;;;;;22.10;74.20;;;;;;5169959;28;21716;-55
2021/08/08 06:26:59;;;;;;;;;;;22.10;74.20;;;;;;5166436;28;19925;-53
2021/08/08 06:29:32;;;;;;;;;;;22.10;74.20;;;;;;5173564;28;19925;-55
2021/08/08 06:32:05;;;;;;;;;;;22.10;74.20;;;;;;5178408;28;19930;-51
2021/08/08 06:34:37;;;;;;;;;;;22.10;74.20;;;;;;5191773;28;19955;-52
2021/08/08 06:37:11;;;;;;;;;;;22.10;74.30;;;;;;5176611;28;19933;-49
2021/08/08 06:39:43;;;;;;;;;;;22.10;74.50;;;;;;5176400;28;19925;-54
2021/08/08 06:42:15;;;;;;;;;;;22.10;74.40;;;;;;5174054;28;19932;-51
2021/08/08 06:44:52;;;;;;;;;;;22.00;74.40;;;;;;5175437;28;20461;-53
2021/08/08 06:47:25;;;;;;;;;;;22.10;74.50;;;;;;5157788;28;19952;-54
2021/08/08 06:49:57;;;;;;;;;;;22.00;74.50;;;;;;5173266;28;19929;-50
2021/08/08 06:52:29;;;;;;;;;;;22.00;74.50;;;;;;5153975;28;19940;-53
2021/08/08 06:55:04;;;;;;;;;;;22.10;74.50;;;;;;5165735;28;19925;-51
2021/08/08 06:57:37;;;;;;;;;;;22.10;74.50;;;;;;5160955;28;20405;-53
2021/08/08 07:00:13;;;;;;;;;;;22.10;74.50;;;;;;5165954;28;19926;-52
2021/08/08 07:02:45;;;;;;;;;;;22.10;74.50;;;;;;5163492;28;19934;-49
2021/08/08 07:05:18;;;;;;;;;;;22.10;74.60;;;;;;5165363;28;20389;-51
2021/08/08 07:07:51;;;;;;;;;;;22.10;74.60;;;;;;5165692;28;19933;-53
2021/08/08 07:10:24;;;;;;;;;;;22.10;74.60;;;;;;5165580;28;20617;-53
2021/08/08 07:12:56;;;;;;;;;;;22.10;74.60;;;;;;5166161;28;19926;-53
2021/08/08 07:15:28;;;;;;;;;;;22.10;74.60;;;;;;5173952;28;19925;-53
2021/08/08 07:18:00;;;;;;;;;;;22.10;74.60;;;;;;5171884;28;19929;-55
2021/08/08 07:20:33;;;;;;;;;;;22.10;74.60;;;;;;5170545;28;19936;-53
2021/08/08 07:23:06;;;;;;;;;;;22.10;74.60;;;;;;5167754;28;19929;-52
2021/08/08 07:25:38;;;;;;;;;;;22.20;74.60;;;;;;5174994;28;19936;-52
2021/08/08 07:28:11;;;;;;;;;;;22.20;74.60;;;;;;5172030;28;19933;-53
2021/08/08 07:30:43;;;;;;;;;;;22.20;74.60;;;;;;5159193;28;19940;-53
2021/08/08 07:33:15;;;;;;;;;;;22.20;74.60;;;;;;5182509;28;19929;-52
2021/08/08 07:35:51;;;;;;;;;;;22.20;74.60;;;;;;5183312;28;20425;-52
2021/08/08 07:38:23;;;;;;;;;;;22.20;74.50;;;;;;5178476;28;19932;-53
2021/08/08 07:40:55;;;;;;;;;;;22.20;74.50;;;;;;4130115;28;10000467;-50
2021/08/08 07:43:43;;;;;;;;;;;22.20;74.50;;;;;;5165332;28;19925;-53
2021/08/08 07:46:16;;;;;;;;;;;22.20;74.50;;;;;;5179139;28;20516;-51
2021/08/08 07:48:50;;;;;;;;;;;22.20;74.50;;;;;;5187126;28;19936;-53
2021/08/08 07:51:22;;;;;;;;;;;22.20;74.40;;;;;;5173161;28;20627;-54
2021/08/08 07:53:55;;;;;;;;;;;22.20;74.40;;;;;;5173717;28;19929;-50
2021/08/08 07:56:27;;;;;;;;;;;22.20;74.40;;;;;;5164491;28;19930;-51
2021/08/08 07:59:00;;;;;;;;;;;22.30;74.50;;;;;;5171238;28;20429;-52
2021/08/08 08:01:33;;;;;;;;;;;22.20;74.40;;;;;;5171316;28;19933;-50
2021/08/08 08:04:05;;;;;;;;;;;22.30;74.50;;;;;;5175137;28;20407;-54
2021/08/08 08:06:38;;;;;;;;;;;22.30;74.40;;;;;;5150744;28;25760;-52
2021/08/08 08:09:10;;;;;;;;;;;22.30;74.40;;;;;;5175503;28;19936;-50
2021/08/08 08:11:43;;;;;;;;;;;22.30;74.40;;;;;;5168698;28;20616;-50
2021/08/08 08:14:15;;;;;;;;;;;22.30;74.30;;;;;;5169557;28;19925;-50
2021/08/08 08:16:48;;;;;;;;;;;22.30;74.30;;;;;;5166635;28;19944;-53
2021/08/08 08:19:20;;;;;;;;;;;22.30;74.30;;;;;;5178007;28;19935;-49
2021/08/08 08:21:52;;;;;;;;;;;22.30;74.30;;;;;;5160259;28;19956;-53
2021/08/08 08:24:25;;;;;;;;;;;22.30;74.40;;;;;;5158929;28;19944;-52
2021/08/08 08:26:57;;;;;;;;;;;22.30;74.30;;;;;;5167730;28;19948;-49
2021/08/08 08:29:29;;;;;;;;;;;22.40;74.50;;;;;;5170625;28;19925;-50
2021/08/08 08:32:01;;;;;;;;;;;22.30;74.30;;;;;;5190044;28;19941;-52
2021/08/08 08:34:34;;;;;;;;;;;22.30;74.30;;;;;;5183902;28;19925;-52
2021/08/08 08:37:06;;;;;;;;;;;22.40;74.40;;;;;;5173599;28;19981;-52
2021/08/08 08:39:39;;;;;;;;;;;22.40;74.30;;;;;;5179629;28;20477;-53
2021/08/08 08:42:13;;;;;;;;;;;22.30;74.20;;;;;;5193253;28;20397;-53
2021/08/08 08:44:45;;;;;;;;;;;22.40;74.30;;;;;;5177318;28;20301;-52
2021/08/08 08:47:18;;;;;;;;;;;22.30;74.30;;;;;;5170375;28;20409;-50
2021/08/08 08:49:54;;;;;;;;;;;22.30;74.20;;;;;;5186331;28;19930;-53
2021/08/08 08:52:27;;;;;;;;;;;22.40;74.30;;;;;;5166743;28;20682;-51
2021/08/08 08:55:00;;;;;;;;;;;22.40;74.30;;;;;;5180452;28;19933;-52
2021/08/08 08:57:34;;;;;;;;;;;22.40;74.30;;;;;;5185062;28;20336;-49
2021/08/08 09:00:07;;;;;;;;;;;22.40;74.30;;;;;;5150966;28;19933;-54
2021/08/08 09:02:42;;;;;;;;;;;22.40;74.20;;;;;;5163884;28;20378;-53
2021/08/08 09:05:15;;;;;;;;;;;22.40;74.20;;;;;;5160787;28;20456;-53
2021/08/08 09:07:48;;;;;;;;;;;22.40;74.30;;;;;;5176558;28;19933;-51
2021/08/08 09:10:22;;;;;;;;;;;22.40;74.30;;;;;;5143713;28;19929;-51
2021/08/08 09:12:58;;;;;;;;;;;22.40;74.50;;;;;;5149964;28;21857;-47
2021/08/08 09:15:40;;;;;;;;;;;22.40;74.50;;;;;;5162149;28;20842;-50
2021/08/08 09:18:15;;;;;;;;;;;22.50;74.60;;;;;;5170604;28;19933;-49
2021/08/08 09:21:07;;;;;;;;;;;22.40;74.50;;;;;;5165271;28;20270;-51
2021/08/08 09:23:40;;;;;;;;;;;22.40;74.50;;;;;;5148639;28;19941;-51
2021/08/08 09:26:12;;;;;;;;;;;22.50;74.70;;;;;;5175678;28;20230;-53
2021/08/08 09:28:48;;;;;;;;;;;22.50;74.20;;;;;;5162223;28;19933;-52
2021/08/08 09:31:20;;;;;;;;;;;22.50;73.70;;;;;;5174813;28;20747;-53
2021/08/08 09:33:53;;;;;;;;;;;22.50;73.60;;;;;;5170529;28;20418;-50
2021/08/08 09:36:37;;;;;;;;;;;22.50;73.00;;;;;;5164632;28;19940;-53
2021/08/08 09:39:10;;;;;;;;;;;22.50;72.90;;;;;;5161348;28;19933;-55
2021/08/08 09:41:42;;;;;;;;;;;22.50;72.70;;;;;;5172742;28;19940;-57
2021/08/08 09:44:18;;;;;;;;;;;22.60;72.80;;;;;;5160691;28;19936;-57
2021/08/08 09:46:57;;;;;;;;;;;22.70;73.00;;;;;;5163166;28;19940;-54
2021/08/08 09:49:29;;;;;;;;;;;22.80;72.00;;;;;;5165561;28;19933;-57
2021/08/08 09:52:02;;;;;;;;;;;22.90;71.90;;;;;;5175754;28;19929;-54
2021/08/08 09:54:37;;;;;;;;;;;23.00;71.50;;;;;;5172460;28;19933;-55
2021/08/08 09:57:09;;;;;;;;;;;23.10;71.20;;;;;;5167694;28;19955;-57
2021/08/08 09:59:50;;;;;;;;;;;23.20;70.50;;;;;;5153028;28;19933;-57
2021/08/08 10:02:23;;;;;;;;;;;23.30;70.70;;;;;;5168982;28;19940;-53
2021/08/08 10:04:56;;;;;;;;;;;23.40;70.00;;;;;;5136692;28;25865;-54
2021/08/08 10:07:28;;;;;;;;;;;23.50;69.80;;;;;;5166693;28;19929;-55
2021/08/08 10:10:01;;;;;;;;;;;23.50;69.70;;;;;;5155904;28;20408;-58
2021/08/08 10:12:41;;;;;;;;;;;23.60;68.30;;;;;;5153870;28;20454;-51
2021/08/08 10:15:13;;;;;;;;;;;23.70;68.30;;;;;;5164201;28;19930;-53
2021/08/08 10:17:47;;;;;;;;;;;23.70;67.90;;;;;;5166459;28;19936;-55
2021/08/08 10:20:21;;;;;;;;;;;23.80;67.80;;;;;;5155425;28;19933;-59
2021/08/08 10:22:54;;;;;;;;;;;23.90;68.00;;;;;;5154200;28;19940;-58
2021/08/08 10:25:27;;;;;;;;;;;23.90;68.10;;;;;;5134832;28;21150;-58
2021/08/08 10:28:00;;;;;;;;;;;23.90;68.00;;;;;;5142174;28;19929;-57
2021/08/08 10:30:33;;;;;;;;;;;24.00;68.00;;;;;;5142312;28;19940;-59
2021/08/08 10:33:07;;;;;;;;;;;24.00;68.00;;;;;;5136339;28;19933;-58
2021/08/08 10:35:41;;;;;;;;;;;24.10;68.00;;;;;;5159884;28;19940;-56
2021/08/08 10:38:15;;;;;;;;;;;24.10;67.90;;;;;;5135459;28;19937;-57
2021/08/08 10:40:49;;;;;;;;;;;24.10;67.80;;;;;;5135514;28;19933;-55
2021/08/08 10:43:23;;;;;;;;;;;24.10;67.70;;;;;;5133898;28;19930;-57
2021/08/08 10:46:02;;;;;;;;;;;24.10;67.80;;;;;;5141926;28;20380;-55
2021/08/08 10:48:35;;;;;;;;;;;24.10;67.40;;;;;;5126336;28;20414;-56
2021/08/08 10:51:16;;;;;;;;;;;24.10;67.60;;;;;;5159097;28;19936;-56
2021/08/08 10:54:05;;;;;;;;;;;24.20;67.50;;;;;;5126478;28;19936;-57
2021/08/08 10:56:41;;;;;;;;;;;24.10;67.60;;;;;;5135937;28;19928;-54
2021/08/08 10:59:20;;;;;;;;;;;24.20;67.60;;;;;;5142940;28;19964;-53
2021/08/08 11:02:09;;;;;;;;;;;24.20;67.40;;;;;;5156336;28;19985;-56
2021/08/08 11:04:42;;;;;;;;;;;24.20;67.40;;;;;;5143230;28;19933;-57
2021/08/08 11:07:14;;;;;;;;;;;24.20;67.50;;;;;;5144128;28;19933;-56
2021/08/08 11:09:47;;;;;;;;;;;24.10;67.50;;;;;;5181093;28;20010;-55
2021/08/08 11:12:29;;;;;;;;;;;24.20;67.30;;;;;;5154862;28;20364;-55
2021/08/08 11:15:02;;;;;;;;;;;24.20;66.90;;;;;;5148252;28;19938;-56
2021/08/08 11:17:35;;;;;;;;;;;24.10;66.90;;;;;;5151917;28;19929;-59
2021/08/08 11:20:08;;;;;;;;;;;24.20;66.90;;;;;;5154966;28;20436;-58
2021/08/08 11:22:40;;;;;;;;;;;24.20;67.10;;;;;;5169948;28;20959;-56
2021/08/08 11:25:15;;;;;;;;;;;24.20;66.90;;;;;;5157405;28;19929;-58
2021/08/08 11:27:51;;;;;;;;;;;24.20;66.80;;;;;;5158335;28;20298;-56
2021/08/08 11:30:24;;;;;;;;;;;24.20;66.30;;;;;;5155775;28;19940;-57
2021/08/08 11:32:56;;;;;;;;;;;24.30;66.70;;;;;;5161195;28;19934;-58
2021/08/08 11:35:29;;;;;;;;;;;24.30;66.70;;;;;;5141567;28;20503;-56
2021/08/08 11:38:19;;;;;;;;;;;24.30;66.70;;;;;;5146957;28;19945;-58
2021/08/08 11:40:51;;;;;;;;;;;24.30;66.80;;;;;;5150076;28;19929;-58
2021/08/08 11:43:29;;;;;;;;;;;24.30;67.10;;;;;;5141430;28;19933;-58
2021/08/08 11:46:02;;;;;;;;;;;24.30;67.00;;;;;;5146071;28;19936;-59
2021/08/08 11:48:34;;;;;;;;;;;24.30;67.20;;;;;;5153424;28;19932;-55
2021/08/08 11:51:07;;;;;;;;;;;24.40;67.20;;;;;;5147591;28;19933;-58
2021/08/08 11:53:39;;;;;;;;;;;24.40;67.00;;;;;;5143492;28;19933;-59
2021/08/08 11:56:12;;;;;;;;;;;24.40;66.80;;;;;;5141155;28;19936;-57
2021/08/08 11:58:49;;;;;;;;;;;24.40;67.00;;;;;;5145217;28;19929;-59
2021/08/08 12:01:23;;;;;;;;;;;24.40;67.00;;;;;;5141592;28;20835;-58
2021/08/08 12:04:06;;;;;;;;;;;24.40;67.00;;;;;;5137423;28;20959;-58
2021/08/08 12:06:38;;;;;;;;;;;24.40;66.90;;;;;;5149797;28;19940;-57
2021/08/08 12:09:10;;;;;;;;;;;24.40;66.90;;;;;;5138965;28;19929;-57
2021/08/08 12:11:51;;;;;;;;;;;24.40;66.80;;;;;;5137667;28;19940;-59
2021/08/08 12:14:31;;;;;;;;;;;24.50;67.00;;;;;;5161782;28;19940;-58
2021/08/08 12:17:07;;;;;;;;;;;24.50;66.90;;;;;;5169558;28;20466;-58
2021/08/08 12:19:41;;;;;;;;;;;24.50;67.00;;;;;;5165756;28;20282;-59
2021/08/08 12:22:20;;;;;;;;;;;24.50;66.90;;;;;;5159646;28;22100;-58
2021/08/08 12:25:09;;;;;;;;;;;24.50;67.00;;;;;;5154913;28;20037;-57
2021/08/08 12:27:42;;;;;;;;;;;24.50;67.00;;;;;;5154800;28;20262;-58
2021/08/08 12:30:15;;;;;;;;;;;24.50;67.00;;;;;;5175005;28;19941;-58
2021/08/08 12:32:47;;;;;;;;;;;24.50;67.00;;;;;;5176700;28;20356;-58
2021/08/08 12:35:21;;;;;;;;;;;24.60;67.00;;;;;;5177275;28;19936;-56
2021/08/08 12:38:04;;;;;;;;;;;24.60;67.00;;;;;;5176819;28;19932;-58
2021/08/08 12:40:54;;;;;;;;;;;24.60;67.00;;;;;;5175913;28;19933;-55
2021/08/08 12:43:27;;;;;;;;;;;24.60;67.00;;;;;;5172061;28;19955;-58
2021/08/08 12:46:08;;;;;;;;;;;24.60;67.10;;;;;;5166913;28;19958;-58
2021/08/08 12:48:41;;;;;;;;;;;24.60;67.20;;;;;;5162296;28;20192;-58
2021/08/08 12:51:13;;;;;;;;;;;24.60;67.80;;;;;;5167478;28;20528;-56
2021/08/08 12:53:45;;;;;;;;;;;24.60;67.20;;;;;;5178602;28;19936;-58
2021/08/08 12:56:17;;;;;;;;;;;24.60;67.40;;;;;;5181163;28;20312;-58
2021/08/08 12:58:51;;;;;;;;;;;24.50;67.40;;;;;;5178082;28;19929;-58
2021/08/08 13:01:24;;;;;;;;;;;24.50;67.50;;;;;;5175963;28;20405;-58
2021/08/08 13:03:57;;;;;;;;;;;24.50;67.60;;;;;;5177858;28;19929;-55
2021/08/08 13:06:29;;;;;;;;;;;24.50;67.70;;;;;;5168757;28;20397;-58
2021/08/08 13:09:01;;;;;;;;;;;24.50;67.80;;;;;;5185358;28;19941;-58
2021/08/08 13:11:33;;;;;;;;;;;24.40;67.80;;;;;;5202679;28;19940;-57
2021/08/08 13:14:06;;;;;;;;;;;24.40;67.90;;;;;;5184307;28;19929;-58
2021/08/08 13:16:38;;;;;;;;;;;24.40;67.90;;;;;;5181260;28;19929;-56
2021/08/08 13:19:10;;;;;;;;;;;24.40;68.00;;;;;;5169897;28;20389;-58
2021/08/08 13:21:43;;;;;;;;;;;24.40;68.00;;;;;;5182735;28;19935;-57
2021/08/08 13:24:15;;;;;;;;;;;24.40;68.00;;;;;;5193649;28;20317;-58
2021/08/08 13:26:48;;;;;;;;;;;24.40;68.00;;;;;;5182429;28;19939;-57
2021/08/08 13:29:20;;;;;;;;;;;24.40;68.10;;;;;;5182404;28;20519;-57
2021/08/08 13:31:53;;;;;;;;;;;24.40;68.10;;;;;;5184898;28;20614;-57
2021/08/08 13:34:26;;;;;;;;;;;24.40;68.10;;;;;;5182657;28;19929;-56
2021/08/08 13:36:58;;;;;;;;;;;24.40;68.10;;;;;;5185321;28;19933;-55
2021/08/08 13:39:30;;;;;;;;;;;24.40;68.10;;;;;;5186017;28;20538;-57
2021/08/08 13:42:02;;;;;;;;;;;24.40;68.10;;;;;;5187522;28;19929;-58
2021/08/08 13:44:34;;;;;;;;;;;24.40;68.10;;;;;;5188938;28;19933;-56
2021/08/08 13:47:07;;;;;;;;;;;24.40;68.20;;;;;;5183434;28;19933;-57
2021/08/08 13:49:39;;;;;;;;;;;24.40;68.30;;;;;;5184118;28;19936;-58
2021/08/08 13:52:12;;;;;;;;;;;24.40;68.30;;;;;;5186012;28;19929;-57
2021/08/08 13:54:44;;;;;;;;;;;24.40;68.30;;;;;;5183556;28;20978;-57
2021/08/08 13:57:16;;;;;;;;;;;24.30;68.20;;;;;;5181303;28;20346;-54
2021/08/08 13:59:48;;;;;;;;;;;24.30;68.30;;;;;;5187513;28;20477;-58
2021/08/08 14:02:20;;;;;;;;;;;24.30;68.40;;;;;;5181306;28;20757;-55
2021/08/08 14:04:53;;;;;;;;;;;24.30;68.40;;;;;;5183502;28;19929;-59
2021/08/08 14:07:25;;;;;;;;;;;24.30;68.50;;;;;;5177090;28;20396;-56
2021/08/08 14:09:57;;;;;;;;;;;24.30;68.40;;;;;;5182745;28;19933;-58
2021/08/08 14:12:30;;;;;;;;;;;24.30;68.60;;;;;;5183955;28;19929;-58
2021/08/08 14:15:02;;;;;;;;;;;24.30;68.60;;;;;;5182131;28;19929;-57
2021/08/08 14:17:34;;;;;;;;;;;24.30;68.60;;;;;;5181183;28;20822;-58
2021/08/08 14:20:07;;;;;;;;;;;24.30;68.60;;;;;;5185416;28;20417;-57
2021/08/08 14:22:39;;;;;;;;;;;24.20;68.60;;;;;;5185466;28;19951;-58
2021/08/08 14:25:11;;;;;;;;;;;24.20;68.70;;;;;;5167722;28;20305;-58
2021/08/08 14:27:44;;;;;;;;;;;24.20;68.60;;;;;;5182826;28;19940;-58
2021/08/08 14:30:16;;;;;;;;;;;24.20;68.60;;;;;;5178037;28;19944;-56
2021/08/08 14:32:48;;;;;;;;;;;24.20;68.60;;;;;;5164361;28;19940;-56
2021/08/08 14:35:21;;;;;;;;;;;24.20;68.60;;;;;;5163823;28;20720;-58
2021/08/08 14:37:53;;;;;;;;;;;24.20;68.60;;;;;;5181477;28;19936;-57
2021/08/08 14:40:26;;;;;;;;;;;24.20;68.70;;;;;;5181078;28;19940;-58
2021/08/08 14:42:58;;;;;;;;;;;24.20;68.70;;;;;;5174583;28;19936;-56
2021/08/08 14:45:30;;;;;;;;;;;24.20;68.70;;;;;;5180517;28;19936;-58
2021/08/08 14:48:02;;;;;;;;;;;24.20;68.70;;;;;;5185728;28;19940;-58
2021/08/08 14:50:34;;;;;;;;;;;24.10;68.70;;;;;;5182669;28;19933;-56
2021/08/08 14:53:07;;;;;;;;;;;24.20;68.70;;;;;;5182202;28;19929;-58